Terminal Aerodrome Forecast
Issued by NWS Duluth, MN

Home | Current Version | Previous Version | Text Only | Print | Product List | Glossary Off
Versions: 1 2 3 4 5 6 7 8 9 10 11 12 13 14 15 16 17 18 19 20 21 22 23 24 25

000
FTUS43 KDLH 291600 AAB
TAFDLH
TAF AMD
KDLH 291619Z 2916/3012 32012KT P6SM VCSH SCT100
      TEMPO 2916/2917 -RA BKN050
     FM292000 32014KT P6SM VCSH BKN060
     FM300100 33005KT P6SM VCSH SCT060=

USA.gov is the U.S. government's official web portal to all federal, state and local government web resources and services.